Time;durP1;ratioP1;P1;durP2;ratioP2;P2;SDS_P1;SDS_P2;PMS_P1;PMS_P2;Temp;Humidity;BMP_temperature;BMP_pressure;BME280_temperature;BME280_humidity;BME280_pressure;Samples;Min_cycle;Max_cycle;Signal;HPM_P1;HPM_P2
2022/12/24 00:01:43;;;;;;;45.03;17.80;;;;;;;;;;5070327;28;20059;-66
2022/12/24 00:04:09;;;;;;;40.00;16.20;;;;;;;;;;5069854;28;20052;-66
2022/12/24 00:06:36;;;;;;;41.50;16.87;;;;;;;;;;5069944;28;20883;-66
2022/12/24 00:09:02;;;;;;;48.47;16.17;;;;;;;;;;5070185;28;20131;-66
2022/12/24 00:11:29;;;;;;;42.17;15.53;;;;;;;;;;5067854;28;20128;-66
2022/12/24 00:13:55;;;;;;;31.53;13.60;;;;;;;;;;5070300;28;20063;-66
2022/12/24 00:16:21;;;;;;;39.17;14.10;;;;;;;;;;5069893;28;20041;-66
2022/12/24 00:18:47;;;;;;;30.23;13.13;;;;;;;;;;5068464;28;20048;-66
2022/12/24 00:21:13;;;;;;;31.93;12.73;;;;;;;;;;5068986;28;20048;-66
2022/12/24 00:23:40;;;;;;;28.13;11.10;;;;;;;;;;5069296;28;20086;-66
2022/12/24 00:26:06;;;;;;;22.90;11.70;;;;;;;;;;5069791;28;20049;-66
2022/12/24 00:28:32;;;;;;;22.60;11.03;;;;;;;;;;5069757;28;20055;-66
2022/12/24 00:30:58;;;;;;;21.07;9.60;;;;;;;;;;5067731;28;20055;-66
2022/12/24 00:33:24;;;;;;;21.80;10.03;;;;;;;;;;5068181;28;20052;-66
2022/12/24 00:35:51;;;;;;;19.73;9.07;;;;;;;;;;5069462;28;20047;-66
2022/12/24 00:38:17;;;;;;;21.00;9.27;;;;;;;;;;5068144;28;21264;-66
2022/12/24 00:40:43;;;;;;;25.60;10.70;;;;;;;;;;5067500;28;20051;-66
2022/12/24 00:43:09;;;;;;;23.17;9.90;;;;;;;;;;5069448;28;20529;-66
2022/12/24 00:45:35;;;;;;;22.90;8.47;;;;;;;;;;5068968;28;20506;-66
2022/12/24 00:48:01;;;;;;;20.37;8.53;;;;;;;;;;5068079;28;20052;-66
2022/12/24 00:50:27;;;;;;;14.97;7.53;;;;;;;;;;5068654;28;20056;-66
2022/12/24 00:52:53;;;;;;;18.13;8.00;;;;;;;;;;5069110;28;20044;-66
2022/12/24 00:55:19;;;;;;;17.30;8.47;;;;;;;;;;5067206;28;20088;-66
2022/12/24 00:57:45;;;;;;;18.77;8.23;;;;;;;;;;5069157;28;20079;-66
2022/12/24 01:00:12;;;;;;;23.00;9.10;;;;;;;;;;5068721;28;20041;-66
2022/12/24 01:02:38;;;;;;;20.13;9.13;;;;;;;;;;5067388;28;20049;-66
2022/12/24 01:05:10;;;;;;;23.37;9.37;;;;;;;;;;5049981;28;20131;-66
2022/12/24 01:07:37;;;;;;;27.93;9.80;;;;;;;;;;5048047;28;20387;-66
2022/12/24 01:10:04;;;;;;;21.93;9.70;;;;;;;;;;5048582;28;20052;-66
2022/12/24 01:12:30;;;;;;;23.40;10.00;;;;;;;;;;5047782;28;20582;-66
2022/12/24 01:14:56;;;;;;;20.30;10.33;;;;;;;;;;5048568;28;20055;-66
2022/12/24 01:17:22;;;;;;;15.23;9.00;;;;;;;;;;5048768;28;20044;-66
2022/12/24 01:19:48;;;;;;;16.37;8.87;;;;;;;;;;5048194;28;20045;-66
2022/12/24 01:22:14;;;;;;;17.37;8.60;;;;;;;;;;5048788;28;20048;-66
2022/12/24 01:24:41;;;;;;;17.60;8.83;;;;;;;;;;5048755;28;20094;-66
2022/12/24 01:27:07;;;;;;;17.13;8.63;;;;;;;;;;5047917;28;20045;-66
2022/12/24 01:29:33;;;;;;;20.37;7.53;;;;;;;;;;5048758;28;20086;-66
2022/12/24 01:31:59;;;;;;;16.97;7.63;;;;;;;;;;5048193;28;20049;-66
2022/12/24 01:34:25;;;;;;;13.80;7.17;;;;;;;;;;5048290;28;20064;-67
2022/12/24 01:36:51;;;;;;;13.93;5.73;;;;;;;;;;5048375;28;20074;-66
2022/12/24 01:39:17;;;;;;;15.03;5.30;;;;;;;;;;5046449;28;20056;-67
2022/12/24 01:44:32;;;;;;;18.70;5.80;;;;;;;;;;5048315;28;20403;-68
2022/12/24 01:47:12;;;;;;;23.10;5.73;;;;;;;;;;5048610;28;20049;-67
2022/12/24 01:49:44;;;;;;;39.60;7.73;;;;;;;;;;5048911;28;20049;-67
2022/12/24 01:52:12;;;;;;;31.97;8.30;;;;;;;;;;5047830;28;20130;-67
2022/12/24 01:54:42;;;;;;;37.90;7.83;;;;;;;;;;5047642;28;20041;-67
2022/12/24 01:57:09;;;;;;;43.57;7.50;;;;;;;;;;5047031;28;20056;-66
2022/12/24 01:59:36;;;;;;;40.77;6.87;;;;;;;;;;5047988;28;20049;-67
2022/12/24 02:02:03;;;;;;;49.90;8.13;;;;;;;;;;5057703;28;20048;-66
2022/12/24 02:04:34;;;;;;;51.87;7.53;;;;;;;;;;5068143;28;20495;-66
2022/12/24 02:07:00;;;;;;;60.33;7.80;;;;;;;;;;5068050;28;20041;-66
2022/12/24 02:09:26;;;;;;;48.13;7.07;;;;;;;;;;5067725;28;20124;-66
2022/12/24 02:11:52;;;;;;;43.40;9.73;;;;;;;;;;5066273;28;20045;-66
2022/12/24 02:14:19;;;;;;;51.47;8.20;;;;;;;;;;5067910;28;20431;-66
2022/12/24 02:17:03;;;;;;;44.00;8.03;;;;;;;;;;5068180;28;20044;-66
2022/12/24 02:19:41;;;;;;;47.30;7.90;;;;;;;;;;5066313;28;20048;-66
2022/12/24 02:22:16;;;;;;;54.37;7.47;;;;;;;;;;5066776;28;20048;-66
2022/12/24 02:24:55;;;;;;;55.40;8.27;;;;;;;;;;5068206;28;20094;-66
2022/12/24 02:27:28;;;;;;;55.07;7.63;;;;;;;;;;5068222;28;20052;-66
2022/12/24 02:29:59;;;;;;;52.60;8.30;;;;;;;;;;5067951;28;20040;-66
2022/12/24 02:32:28;;;;;;;50.60;7.73;;;;;;;;;;5065512;28;20120;-66
2022/12/24 02:35:08;;;;;;;48.97;7.20;;;;;;;;;;5067268;28;20048;-66
2022/12/24 02:37:37;;;;;;;45.27;6.93;;;;;;;;;;5071764;28;20041;-66
2022/12/24 02:40:08;;;;;;;53.00;9.50;;;;;;;;;;5070447;28;20449;-66
2022/12/24 02:42:40;;;;;;;50.53;7.87;;;;;;;;;;5056231;28;20429;-66
2022/12/24 02:45:21;;;;;;;45.20;6.60;;;;;;;;;;5051358;28;20064;-66
2022/12/24 02:47:48;;;;;;;40.90;6.77;;;;;;;;;;5051414;28;20052;-66
2022/12/24 02:50:15;;;;;;;42.33;6.87;;;;;;;;;;5057656;28;20503;-66
2022/12/24 02:52:42;;;;;;;37.83;7.07;;;;;;;;;;5070633;28;20114;-66
2022/12/24 02:55:14;;;;;;;46.73;6.87;;;;;;;;;;5068160;28;20106;-66
2022/12/24 02:58:01;;;;;;;33.50;6.87;;;;;;;;;;5051364;28;20321;-67
2022/12/24 03:00:31;;;;;;;42.83;8.60;;;;;;;;;;5045894;28;20048;-66
2022/12/24 03:03:22;;;;;;;29.90;5.87;;;;;;;;;;5032828;28;20128;-66
2022/12/24 03:05:58;;;;;;;54.27;8.00;;;;;;;;;;5051493;28;20503;-66
2022/12/24 03:08:41;;;;;;;40.20;6.73;;;;;;;;;;5049190;28;20131;-66
2022/12/24 03:11:12;;;;;;;31.73;5.97;;;;;;;;;;5056793;28;20055;-66
2022/12/24 03:13:38;;;;;;;43.20;6.73;;;;;;;;;;5071139;28;20094;-66
2022/12/24 03:16:06;;;;;;;47.83;7.23;;;;;;;;;;5070039;28;20056;-66
2022/12/24 03:18:33;;;;;;;47.30;6.87;;;;;;;;;;5070602;28;20043;-66
2022/12/24 03:21:17;;;;;;;50.53;6.87;;;;;;;;;;5068809;28;20086;-66
2022/12/24 03:23:44;;;;;;;32.83;6.47;;;;;;;;;;5070678;28;20102;-66
2022/12/24 03:26:11;;;;;;;44.73;6.73;;;;;;;;;;5070785;28;20049;-66
2022/12/24 03:28:39;;;;;;;45.23;7.50;;;;;;;;;;5070970;28;20045;-66
2022/12/24 03:31:05;;;;;;;44.63;7.23;;;;;;;;;;5068376;28;20044;-66
2022/12/24 03:33:31;;;;;;;44.87;8.37;;;;;;;;;;5070741;28;20048;-66
2022/12/24 03:35:57;;;;;;;51.67;7.70;;;;;;;;;;5070590;28;20044;-66
2022/12/24 03:38:23;;;;;;;38.50;6.73;;;;;;;;;;5069878;28;20109;-66
2022/12/24 03:40:49;;;;;;;43.43;7.37;;;;;;;;;;5069794;28;20053;-67
2022/12/24 03:43:15;;;;;;;44.83;7.80;;;;;;;;;;5052830;28;20057;-66
2022/12/24 03:45:41;;;;;;;51.80;8.20;;;;;;;;;;5069720;28;20061;-66
2022/12/24 03:48:07;;;;;;;46.50;7.67;;;;;;;;;;5069269;28;20048;-66
2022/12/24 03:50:33;;;;;;;53.80;7.50;;;;;;;;;;5066945;28;20098;-66
2022/12/24 03:53:00;;;;;;;55.23;7.57;;;;;;;;;;5049871;28;20056;-66
2022/12/24 03:55:26;;;;;;;45.03;8.50;;;;;;;;;;5050119;28;20414;-66
2022/12/24 03:57:52;;;;;;;40.70;6.20;;;;;;;;;;5050277;28;20094;-66
2022/12/24 04:00:18;;;;;;;49.53;7.10;;;;;;;;;;5050094;28;20052;-66
2022/12/24 04:02:44;;;;;;;51.20;7.63;;;;;;;;;;5049223;28;20052;-66
2022/12/24 04:05:14;;;;;;;37.13;7.37;;;;;;;;;;5050257;28;20418;-66
2022/12/24 04:07:40;;;;;;;41.53;6.80;;;;;;;;;;5050322;28;20044;-66
2022/12/24 04:10:06;;;;;;;44.17;7.27;;;;;;;;;;5049846;28;20060;-66
2022/12/24 04:12:33;;;;;;;51.03;9.50;;;;;;;;;;5048549;28;20060;-66
2022/12/24 04:14:59;;;;;;;50.37;7.33;;;;;;;;;;5049905;28;20057;-66
2022/12/24 04:17:25;;;;;;;59.60;10.90;;;;;;;;;;5049905;28;20415;-66
2022/12/24 04:19:51;;;;;;;65.70;9.20;;;;;;;;;;5049932;28;20049;-66
2022/12/24 04:22:17;;;;;;;38.80;6.53;;;;;;;;;;5061928;28;20067;-66
2022/12/24 04:24:43;;;;;;;48.13;8.07;;;;;;;;;;5068529;28;20048;-66
2022/12/24 04:27:09;;;;;;;52.13;8.70;;;;;;;;;;5068327;28;20406;-66
2022/12/24 04:29:35;;;;;;;51.67;9.03;;;;;;;;;;5067949;28;20565;-66
2022/12/24 04:32:01;;;;;;;44.80;8.70;;;;;;;;;;5057146;28;20056;-66
2022/12/24 04:34:28;;;;;;;47.27;6.93;;;;;;;;;;5049655;28;20053;-66
2022/12/24 04:36:54;;;;;;;54.73;9.37;;;;;;;;;;5049117;28;20178;-66
2022/12/24 04:39:20;;;;;;;50.80;6.37;;;;;;;;;;5049202;28;20044;-66
2022/12/24 04:41:46;;;;;;;48.20;7.30;;;;;;;;;;5049194;28;20053;-66
2022/12/24 04:44:12;;;;;;;46.80;7.97;;;;;;;;;;5049092;28;20041;-66
2022/12/24 04:46:38;;;;;;;55.10;7.10;;;;;;;;;;5049480;28;20110;-65
2022/12/24 04:49:05;;;;;;;44.83;6.77;;;;;;;;;;5048704;28;20102;-66
2022/12/24 04:51:31;;;;;;;54.17;8.30;;;;;;;;;;5055144;28;20126;-66
2022/12/24 04:53:57;;;;;;;42.63;7.23;;;;;;;;;;5068928;28;20051;-66
2022/12/24 04:56:26;;;;;;;49.60;7.43;;;;;;;;;;5068770;28;20107;-66
2022/12/24 04:58:52;;;;;;;49.10;7.80;;;;;;;;;;5067110;28;20052;-66
2022/12/24 05:01:20;;;;;;;50.00;8.13;;;;;;;;;;5063318;28;20476;-66
2022/12/24 05:03:46;;;;;;;41.90;7.57;;;;;;;;;;5047906;28;20049;-66
2022/12/24 05:06:13;;;;;;;41.07;7.97;;;;;;;;;;5047441;28;20041;-66
2022/12/24 05:08:39;;;;;;;47.30;7.93;;;;;;;;;;5049033;28;20102;-66
2022/12/24 05:11:06;;;;;;;46.27;8.37;;;;;;;;;;5051231;28;20415;-66
2022/12/24 05:13:32;;;;;;;42.47;7.63;;;;;;;;;;5066999;28;20036;-66
2022/12/24 05:15:58;;;;;;;55.30;7.30;;;;;;;;;;5066836;28;20094;-65
2022/12/24 05:18:24;;;;;;;49.87;8.00;;;;;;;;;;5068596;28;20549;-66
2022/12/24 05:20:51;;;;;;;45.30;7.50;;;;;;;;;;5066883;28;20052;-65
2022/12/24 05:26:23;;;;;;;51.70;8.90;;;;;;;;;;5049072;28;20053;-66
2022/12/24 05:28:51;;;;;;;51.58;8.23;;;;;;;;;;5048333;28;20081;-66
2022/12/24 05:31:17;;;;;;;47.10;8.03;;;;;;;;;;5050732;28;20520;-66
2022/12/24 05:33:43;;;;;;;52.50;7.47;;;;;;;;;;5060456;28;20049;-66
2022/12/24 05:36:09;;;;;;;55.80;9.03;;;;;;;;;;5047513;28;20439;-66
2022/12/24 05:38:35;;;;;;;49.37;8.50;;;;;;;;;;5046833;28;20128;-66
2022/12/24 05:41:01;;;;;;;47.07;9.03;;;;;;;;;;5048486;28;20520;-66
2022/12/24 05:43:27;;;;;;;58.30;8.50;;;;;;;;;;5047893;28;20194;-66
2022/12/24 05:45:58;;;;;;;54.07;8.10;;;;;;;;;;5047049;28;20053;-66
2022/12/24 05:48:24;;;;;;;61.27;9.80;;;;;;;;;;5047853;28;20056;-66
2022/12/24 05:50:50;;;;;;;48.73;8.10;;;;;;;;;;5047071;28;20136;-66
2022/12/24 05:53:16;;;;;;;52.77;7.53;;;;;;;;;;5048569;28;20049;-66
2022/12/24 05:55:42;;;;;;;41.37;6.80;;;;;;;;;;5063295;28;20076;-66
2022/12/24 05:58:08;;;;;;;52.83;9.47;;;;;;;;;;5046354;28;20053;-66
2022/12/24 06:00:34;;;;;;;52.17;7.17;;;;;;;;;;5047198;28;20431;-66
2022/12/24 06:03:00;;;;;;;48.47;8.57;;;;;;;;;;5049219;28;20079;-66
2022/12/24 06:05:26;;;;;;;42.57;7.20;;;;;;;;;;5048126;28;20053;-65
2022/12/24 06:07:53;;;;;;;55.23;8.50;;;;;;;;;;5046671;28;20049;-66
2022/12/24 06:10:19;;;;;;;48.70;7.87;;;;;;;;;;5050829;28;20045;-66
2022/12/24 06:12:45;;;;;;;58.60;9.43;;;;;;;;;;5062143;28;20048;-66
2022/12/24 06:15:11;;;;;;;50.03;7.10;;;;;;;;;;5072369;28;20040;-66
2022/12/24 06:17:37;;;;;;;47.90;8.87;;;;;;;;;;5071085;28;20055;-66
2022/12/24 06:20:03;;;;;;;51.53;7.40;;;;;;;;;;5068063;28;20399;-66
2022/12/24 06:22:30;;;;;;;49.67;7.57;;;;;;;;;;5051405;28;20132;-66
2022/12/24 06:24:56;;;;;;;39.07;5.63;;;;;;;;;;5051572;28;20044;-66
2022/12/24 06:27:22;;;;;;;38.70;6.47;;;;;;;;;;5051976;28;20102;-66
2022/12/24 06:29:48;;;;;;;45.10;6.43;;;;;;;;;;5061102;28;20047;-66
2022/12/24 06:32:14;;;;;;;48.47;9.33;;;;;;;;;;5070406;28;20056;-66
2022/12/24 06:34:40;;;;;;;46.63;7.80;;;;;;;;;;5071191;28;20059;-66
2022/12/24 06:37:06;;;;;;;40.93;5.87;;;;;;;;;;5072143;28;20036;-66
2022/12/24 06:39:32;;;;;;;39.83;7.53;;;;;;;;;;5071585;28;20490;-66
2022/12/24 06:41:58;;;;;;;51.83;6.57;;;;;;;;;;5054094;28;20530;-66
2022/12/24 06:44:25;;;;;;;42.47;6.00;;;;;;;;;;5051456;28;20057;-66
2022/12/24 06:46:51;;;;;;;53.00;7.43;;;;;;;;;;5051648;28;20131;-66
2022/12/24 06:49:17;;;;;;;45.70;7.30;;;;;;;;;;5050865;28;20411;-66
2022/12/24 06:51:43;;;;;;;40.77;8.27;;;;;;;;;;5066190;28;20033;-65
2022/12/24 06:54:09;;;;;;;41.30;5.60;;;;;;;;;;5071410;28;20051;-66
2022/12/24 06:56:35;;;;;;;42.00;7.87;;;;;;;;;;5071354;28;20052;-66
2022/12/24 06:59:01;;;;;;;44.13;8.10;;;;;;;;;;5070289;28;20074;-66
2022/12/24 07:01:27;;;;;;;31.70;6.53;;;;;;;;;;5058835;28;20052;-66
2022/12/24 07:03:53;;;;;;;57.73;7.80;;;;;;;;;;5051340;28;20128;-66
2022/12/24 07:06:21;;;;;;;43.43;7.30;;;;;;;;;;5050948;28;20128;-66
2022/12/24 07:08:47;;;;;;;53.17;8.17;;;;;;;;;;5063584;28;20076;-66
2022/12/24 07:11:13;;;;;;;41.60;8.13;;;;;;;;;;5051334;28;20053;-66
2022/12/24 07:13:39;;;;;;;45.63;6.37;;;;;;;;;;5061662;28;20515;-66
2022/12/24 07:16:05;;;;;;;44.93;6.77;;;;;;;;;;5051476;28;20127;-66
2022/12/24 07:18:31;;;;;;;45.77;7.60;;;;;;;;;;5050953;28;20527;-66
2022/12/24 07:20:57;;;;;;;45.53;8.57;;;;;;;;;;5050255;28;20052;-66
2022/12/24 07:23:24;;;;;;;54.07;8.00;;;;;;;;;;5032693;28;20088;-66
2022/12/24 07:25:50;;;;;;;40.17;6.80;;;;;;;;;;5050713;28;20056;-66
2022/12/24 07:28:16;;;;;;;50.27;8.37;;;;;;;;;;5050538;28;20057;-66
2022/12/24 07:30:42;;;;;;;39.07;6.47;;;;;;;;;;5053971;28;20055;-66
2022/12/24 07:33:08;;;;;;;49.47;7.77;;;;;;;;;;5066596;28;20127;-66
2022/12/24 07:35:34;;;;;;;52.53;9.17;;;;;;;;;;5067710;28;20088;-66
2022/12/24 07:38:01;;;;;;;40.97;6.10;;;;;;;;;;5049274;28;20053;-66
2022/12/24 07:40:27;;;;;;;40.30;7.93;;;;;;;;;;5050930;28;20097;-66
2022/12/24 07:42:53;;;;;;;48.03;7.90;;;;;;;;;;5063130;28;20127;-66
2022/12/24 07:45:19;;;;;;;45.03;6.70;;;;;;;;;;5071847;28;20082;-66
2022/12/24 07:47:45;;;;;;;52.27;7.20;;;;;;;;;;5067428;28;20068;-66
2022/12/24 07:50:11;;;;;;;43.93;6.90;;;;;;;;;;5050530;28;20419;-66
2022/12/24 07:52:37;;;;;;;56.80;7.60;;;;;;;;;;5032735;28;20056;-66
2022/12/24 07:55:03;;;;;;;51.67;8.30;;;;;;;;;;5058868;28;20048;-66
2022/12/24 07:57:29;;;;;;;51.43;8.17;;;;;;;;;;5053307;28;20128;-66
2022/12/24 07:59:55;;;;;;;39.70;7.30;;;;;;;;;;5054991;28;20127;-66
2022/12/24 08:02:21;;;;;;;47.20;8.20;;;;;;;;;;5068597;28;20055;-66
2022/12/24 08:04:47;;;;;;;52.93;8.87;;;;;;;;;;5070340;28;20102;-66
2022/12/24 08:07:13;;;;;;;49.17;9.23;;;;;;;;;;5070110;28;20090;-65
2022/12/24 08:09:39;;;;;;;48.53;7.80;;;;;;;;;;5069255;28;20079;-66
2022/12/24 08:12:05;;;;;;;60.17;8.70;;;;;;;;;;5060580;28;20526;-66
2022/12/24 08:14:31;;;;;;;43.57;8.30;;;;;;;;;;5070227;28;20561;-66
2022/12/24 08:16:57;;;;;;;48.37;8.10;;;;;;;;;;5055252;28;20458;-66
2022/12/24 08:19:24;;;;;;;53.60;7.53;;;;;;;;;;5056024;28;20053;-66
2022/12/24 08:21:50;;;;;;;54.77;8.57;;;;;;;;;;5056839;28;20063;-66
2022/12/24 08:24:16;;;;;;;47.80;8.10;;;;;;;;;;5056589;28;20044;-67
2022/12/24 08:26:42;;;;;;;52.67;9.53;;;;;;;;;;5051292;28;20180;-67
2022/12/24 08:29:08;;;;;;;60.50;11.10;;;;;;;;;;5067459;28;20438;-67
2022/12/24 08:31:35;;;;;;;49.13;9.90;;;;;;;;;;5048650;28;20037;-66
2022/12/24 08:34:05;;;;;;;54.07;9.47;;;;;;;;;;5049277;28;20049;-67
2022/12/24 08:36:31;;;;;;;52.20;9.67;;;;;;;;;;5062427;28;20044;-67
2022/12/24 08:38:58;;;;;;;60.03;10.50;;;;;;;;;;5052688;28;20044;-67
2022/12/24 08:41:24;;;;;;;53.63;10.37;;;;;;;;;;5049317;28;20049;-66
2022/12/24 08:43:50;;;;;;;54.97;9.07;;;;;;;;;;5046948;28;20562;-66
2022/12/24 08:46:16;;;;;;;59.33;9.23;;;;;;;;;;5047722;28;20523;-67
2022/12/24 08:48:42;;;;;;;55.93;10.00;;;;;;;;;;5048737;28;20049;-67
2022/12/24 08:51:09;;;;;;;42.97;10.23;;;;;;;;;;5048368;28;20045;-67
2022/12/24 08:53:35;;;;;;;60.67;12.33;;;;;;;;;;5048269;28;20056;-67
2022/12/24 08:56:05;;;;;;;52.00;9.90;;;;;;;;;;5048796;28;20087;-67
2022/12/24 08:58:31;;;;;;;57.50;12.03;;;;;;;;;;5048605;28;20080;-67
2022/12/24 09:00:57;;;;;;;48.20;8.23;;;;;;;;;;5048514;28;20045;-66
2022/12/24 09:03:23;;;;;;;64.30;10.03;;;;;;;;;;5048625;28;20044;-67
2022/12/24 09:05:49;;;;;;;49.80;8.90;;;;;;;;;;5048588;28;20504;-67
2022/12/24 09:08:15;;;;;;;46.23;9.03;;;;;;;;;;5046515;28;20040;-67
2022/12/24 09:10:41;;;;;;;46.53;8.50;;;;;;;;;;5048473;28;20122;-67
2022/12/24 09:13:07;;;;;;;50.87;9.50;;;;;;;;;;5048401;28;20064;-67
2022/12/24 09:15:33;;;;;;;59.20;12.67;;;;;;;;;;5048415;28;20495;-67
2022/12/24 09:18:00;;;;;;;65.03;9.90;;;;;;;;;;5047714;28;20384;-67
2022/12/24 09:20:26;;;;;;;55.63;9.87;;;;;;;;;;5048446;28;20048;-67
2022/12/24 09:22:52;;;;;;;46.17;10.17;;;;;;;;;;5048167;28;20430;-66
2022/12/24 09:25:18;;;;;;;54.00;8.53;;;;;;;;;;5047587;28;20059;-67
2022/12/24 09:27:44;;;;;;;51.33;8.97;;;;;;;;;;5047895;28;20051;-66
2022/12/24 09:30:10;;;;;;;63.77;9.37;;;;;;;;;;5048076;28;20049;-66
2022/12/24 09:32:36;;;;;;;51.90;8.47;;;;;;;;;;5048104;28;20088;-67
2022/12/24 09:35:02;;;;;;;45.33;7.80;;;;;;;;;;5047315;28;20056;-66
2022/12/24 09:37:28;;;;;;;54.20;7.67;;;;;;;;;;5048188;28;20134;-66
2022/12/24 09:39:54;;;;;;;46.47;8.60;;;;;;;;;;5047916;28;20044;-66
2022/12/24 09:42:29;;;;;;;64.40;9.47;;;;;;;;;;5047701;28;20071;-68
2022/12/24 09:44:58;;;;;;;53.67;9.93;;;;;;;;;;5047291;28;20063;-68
2022/12/24 09:47:27;;;;;;;55.93;9.47;;;;;;;;;;5046103;28;20443;-67
2022/12/24 09:49:55;;;;;;;44.17;8.87;;;;;;;;;;5047790;28;20044;-67
2022/12/24 09:52:26;;;;;;;59.13;8.43;;;;;;;;;;5047812;28;20474;-67
2022/12/24 09:55:19;;;;;;;41.87;8.30;;;;;;;;;;5029558;28;20056;-66
2022/12/24 09:57:45;;;;;;;52.13;9.83;;;;;;;;;;5031725;28;20056;-66
2022/12/24 10:00:18;;;;;;;40.67;9.67;;;;;;;;;;5047647;28;20052;-67
2022/12/24 10:02:44;;;;;;;44.25;7.72;;;;;;;;;;5047697;28;20055;-66
2022/12/24 10:05:14;;;;;;;52.37;8.53;;;;;;;;;;5047534;28;20052;-66
2022/12/24 10:07:43;;;;;;;57.97;10.90;;;;;;;;;;5047191;28;20072;-67
2022/12/24 10:10:29;;;;;;;44.63;7.50;;;;;;;;;;5047767;28;20057;-66
2022/12/24 10:12:55;;;;;;;57.13;8.40;;;;;;;;;;5047626;28;20045;-66
2022/12/24 10:15:28;;;;;;;55.97;9.10;;;;;;;;;;5046962;28;20068;-66
2022/12/24 10:18:08;;;;;;;45.50;7.90;;;;;;;;;;5047593;28;20135;-66
2022/12/24 10:20:43;;;;;;;45.93;10.30;;;;;;;;;;5047441;28;20045;-67
2022/12/24 10:23:09;;;;;;;52.73;8.57;;;;;;;;;;5047608;28;20056;-66
2022/12/24 10:25:47;;;;;;;37.37;7.33;;;;;;;;;;5045737;28;20140;-66
2022/12/24 10:28:18;;;;;;;45.83;10.77;;;;;;;;;;5047534;28;20048;-66
2022/12/24 10:30:48;;;;;;;46.93;8.93;;;;;;;;;;5047242;28;20056;-66
2022/12/24 10:33:34;;;;;;;49.87;7.93;;;;;;;;;;5045911;28;20458;-66
2022/12/24 10:36:00;;;;;;;45.20;7.80;;;;;;;;;;5046551;28;20052;-66
2022/12/24 10:38:26;;;;;;;46.00;8.27;;;;;;;;;;5046203;28;20048;-66
2022/12/24 10:40:54;;;;;;;49.40;8.40;;;;;;;;;;5047273;28;20049;-66
2022/12/24 10:43:21;;;;;;;44.70;9.33;;;;;;;;;;5047263;28;20045;-66
2022/12/24 10:45:50;;;;;;;49.87;8.23;;;;;;;;;;5045788;28;20052;-66
2022/12/24 10:48:21;;;;;;;45.17;8.47;;;;;;;;;;5047213;28;20526;-66
2022/12/24 10:51:12;;;;;;;58.37;9.63;;;;;;;;;;5046557;28;20523;-66
2022/12/24 10:53:48;;;;;;;49.07;8.73;;;;;;;;;;5047262;28;20056;-66
2022/12/24 10:56:16;;;;;;;44.77;7.83;;;;;;;;;;5048481;28;20053;-66
2022/12/24 10:58:50;;;;;;;48.37;9.13;;;;;;;;;;5050950;28;20384;-66
2022/12/24 11:01:16;;;;;;;50.70;8.47;;;;;;;;;;5049403;28;20060;-66
2022/12/24 11:03:42;;;;;;;50.37;9.37;;;;;;;;;;5050894;28;20400;-66
2022/12/24 11:06:10;;;;;;;43.63;8.13;;;;;;;;;;5049620;28;20041;-66
2022/12/24 11:08:37;;;;;;;67.53;8.77;;;;;;;;;;5032902;28;20127;-66
2022/12/24 11:11:12;;;;;;;48.43;9.73;;;;;;;;;;5048846;28;20049;-66
2022/12/24 11:13:40;;;;;;;52.70;8.23;;;;;;;;;;5049153;28;20056;-66
2022/12/24 11:16:12;;;;;;;54.47;8.77;;;;;;;;;;5050472;28;20041;-66
2022/12/24 11:18:43;;;;;;;49.97;10.17;;;;;;;;;;5050677;28;20057;-66
2022/12/24 11:21:09;;;;;;;43.97;8.43;;;;;;;;;;5049339;28;20554;-66
2022/12/24 11:23:36;;;;;;;58.43;8.80;;;;;;;;;;5049160;28;20045;-66
2022/12/24 11:26:02;;;;;;;50.20;8.63;;;;;;;;;;5049860;28;20037;-66
2022/12/24 11:28:31;;;;;;;51.43;9.13;;;;;;;;;;5049129;28;20085;-66
2022/12/24 11:31:05;;;;;;;49.67;7.97;;;;;;;;;;5050181;28;20392;-66
2022/12/24 11:33:32;;;;;;;48.13;8.47;;;;;;;;;;5050210;28;20045;-66
2022/12/24 11:36:03;;;;;;;55.27;9.33;;;;;;;;;;5048520;28;20124;-66
2022/12/24 11:38:30;;;;;;;46.67;7.63;;;;;;;;;;5050176;28;20454;-66
2022/12/24 11:41:00;;;;;;;48.77;8.60;;;;;;;;;;5050487;28;20124;-66
2022/12/24 11:43:43;;;;;;;49.27;10.70;;;;;;;;;;5050050;28;20507;-66
2022/12/24 11:46:36;;;;;;;43.97;8.83;;;;;;;;;;5049825;28;20140;-66
2022/12/24 11:49:25;;;;;;;44.90;7.63;;;;;;;;;;5045435;28;20115;-66
2022/12/24 11:52:09;;;;;;;42.47;9.20;;;;;;;;;;5044217;28;20056;-66
2022/12/24 11:54:40;;;;;;;50.63;8.63;;;;;;;;;;5048952;28;20067;-66
2022/12/24 11:57:08;;;;;;;53.63;8.50;;;;;;;;;;5049394;28;20052;-66
2022/12/24 11:59:37;;;;;;;50.40;8.33;;;;;;;;;;5049283;28;20518;-66
2022/12/24 12:02:15;;;;;;;54.93;7.93;;;;;;;;;;5049655;28;20434;-66
2022/12/24 12:04:42;;;;;;;49.77;7.23;;;;;;;;;;5049673;28;20053;-66
2022/12/24 12:07:18;;;;;;;45.70;9.23;;;;;;;;;;5049298;28;20088;-66
2022/12/24 12:09:50;;;;;;;34.63;7.53;;;;;;;;;;5049035;28;20052;-66
2022/12/24 12:12:24;;;;;;;42.10;7.90;;;;;;;;;;5048366;28;20541;-66
2022/12/24 12:14:52;;;;;;;41.10;6.80;;;;;;;;;;5048228;28;20415;-66
2022/12/24 12:17:37;;;;;;;43.77;6.17;;;;;;;;;;5049418;28;20045;-66
2022/12/24 12:20:21;;;;;;;41.87;8.17;;;;;;;;;;5031626;28;20411;-66
2022/12/24 12:22:53;;;;;;;35.97;6.07;;;;;;;;;;5048866;28;20045;-66
2022/12/24 12:25:25;;;;;;;44.20;7.27;;;;;;;;;;5031529;28;20057;-66
2022/12/24 12:27:53;;;;;;;44.97;7.40;;;;;;;;;;5049192;28;20045;-66
2022/12/24 12:30:21;;;;;;;33.93;6.57;;;;;;;;;;5048836;28;20124;-66
2022/12/24 12:32:47;;;;;;;32.27;6.37;;;;;;;;;;5049274;28;20127;-66
2022/12/24 12:35:14;;;;;;;32.23;6.17;;;;;;;;;;5048382;28;20500;-66
2022/12/24 12:37:42;;;;;;;36.63;7.13;;;;;;;;;;5048754;28;20059;-66
2022/12/24 12:40:14;;;;;;;37.17;6.37;;;;;;;;;;5048986;28;20064;-66
2022/12/24 12:42:40;;;;;;;28.80;4.60;;;;;;;;;;5048669;28;20045;-66
2022/12/24 12:45:21;;;;;;;38.90;6.07;;;;;;;;;;5048790;28;20056;-65
2022/12/24 12:47:53;;;;;;;30.50;5.27;;;;;;;;;;5048713;28;20049;-66
2022/12/24 12:50:37;;;;;;;29.93;5.63;;;;;;;;;;5047224;28;20372;-66
2022/12/24 12:53:03;;;;;;;;;;;;;;;;;;5049262;28;20041;-66
2022/12/24 12:55:29;;;;;;;34.30;6.97;;;;;;;;;;5047278;28;20447;-66
2022/12/24 12:57:58;;;;;;;28.60;5.47;;;;;;;;;;5048219;28;20088;-66
2022/12/24 13:00:25;;;;;;;33.87;6.63;;;;;;;;;;5048389;28;20124;-66
2022/12/24 13:02:54;;;;;;;32.00;5.90;;;;;;;;;;5048708;28;20053;-66
2022/12/24 13:05:20;;;;;;;30.00;4.90;;;;;;;;;;5048450;28;20045;-65
2022/12/24 13:07:49;;;;;;;36.03;5.63;;;;;;;;;;5048287;28;20036;-66
2022/12/24 13:10:21;;;;;;;27.03;4.60;;;;;;;;;;5048349;28;20118;-65
2022/12/24 13:12:53;;;;;;;27.43;4.40;;;;;;;;;;5048516;28;20057;-65
2022/12/24 13:15:19;;;;;;;27.07;4.97;;;;;;;;;;5048458;28;20084;-65
2022/12/24 13:18:11;;;;;;;28.20;4.20;;;;;;;;;;5046872;28;20049;-66
2022/12/24 13:20:42;;;;;;;31.87;5.37;;;;;;;;;;5045331;28;20049;-65
2022/12/24 13:23:17;;;;;;;34.20;4.07;;;;;;;;;;5048107;28;20056;-65
2022/12/24 13:25:45;;;;;;;26.43;4.70;;;;;;;;;;5048167;28;20064;-65
2022/12/24 13:28:35;;;;;;;21.57;5.13;;;;;;;;;;5048151;28;20368;-65
2022/12/24 13:31:01;;;;;;;18.77;3.77;;;;;;;;;;5042900;28;20054;-65
2022/12/24 13:33:36;;;;;;;25.03;4.60;;;;;;;;;;5048247;28;20052;-65
2022/12/24 13:36:02;;;;;;;24.43;4.60;;;;;;;;;;5047491;28;20049;-65
2022/12/24 13:38:28;;;;;;;27.37;5.73;;;;;;;;;;5048134;28;20064;-65
2022/12/24 13:40:55;;;;;;;29.30;5.07;;;;;;;;;;5046605;28;20526;-65
2022/12/24 13:43:21;;;;;;;23.33;4.10;;;;;;;;;;5030168;28;20119;-65
2022/12/24 13:45:48;;;;;;;25.47;3.83;;;;;;;;;;5047373;28;20084;-65
2022/12/24 13:48:21;;;;;;;22.37;4.40;;;;;;;;;;5047734;28;20131;-65
2022/12/24 13:50:50;;;;;;;25.37;5.27;;;;;;;;;;5048318;28;20057;-65
2022/12/24 13:53:27;;;;;;;23.00;3.50;;;;;;;;;;5046334;28;20166;-65
2022/12/24 13:56:06;;;;;;;22.83;4.17;;;;;;;;;;5029516;28;20041;-65
2022/12/24 13:58:34;;;;;;;27.00;4.93;;;;;;;;;;5047775;28;20450;-65
2022/12/24 14:01:02;;;;;;;26.37;4.43;;;;;;;;;;5047957;28;20077;-65
2022/12/24 14:03:34;;;;;;;20.57;3.67;;;;;;;;;;5047627;28;20049;-65
2022/12/24 14:06:05;;;;;;;24.97;5.03;;;;;;;;;;5047528;28;20581;-65
2022/12/24 14:08:34;;;;;;;19.80;3.87;;;;;;;;;;5047735;28;20511;-65
2022/12/24 14:11:05;;;;;;;32.93;5.20;;;;;;;;;;5046992;28;20070;-65
2022/12/24 14:13:37;;;;;;;20.03;4.00;;;;;;;;;;5047760;28;20060;-65
2022/12/24 14:16:04;;;;;;;27.43;4.27;;;;;;;;;;5047641;28;20085;-65
2022/12/24 14:18:32;;;;;;;24.07;3.60;;;;;;;;;;5047643;28;20396;-65
2022/12/24 14:20:59;;;;;;;24.60;4.80;;;;;;;;;;5047454;28;20125;-65
2022/12/24 14:23:37;;;;;;;36.20;4.77;;;;;;;;;;5047076;28;20052;-65
2022/12/24 14:26:04;;;;;;;24.17;4.20;;;;;;;;;;5046058;28;20076;-65
2022/12/24 14:28:39;;;;;;;25.57;3.60;;;;;;;;;;5046333;28;20103;-65
2022/12/24 14:31:13;;;;;;;24.93;4.47;;;;;;;;;;5050171;28;20037;-65
2022/12/24 14:33:39;;;;;;;;;;;;;;;;;;5051569;28;20037;-65
2022/12/24 14:36:05;;;;;;;29.53;5.43;;;;;;;;;;5049269;28;20024;-65
2022/12/24 14:38:32;;;;;;;27.27;4.87;;;;;;;;;;5051537;28;20850;-65
2022/12/24 14:41:16;;;;;;;24.53;4.40;;;;;;;;;;5049463;28;20041;-65
2022/12/24 14:43:42;;;;;;;28.67;4.93;;;;;;;;;;5051324;28;20094;-65